sensor_id;sensor_type;location;lat;lon;timestamp;pressure;altitude;pressure_sealevel;temperature
70389;BMP280;58659;49.050;8.530;2023-05-24T00:01:04;100353.72;;;13.90
70389;BMP280;58659;49.050;8.530;2023-05-24T00:03:31;100341.69;;;13.86
70389;BMP280;58659;49.050;8.530;2023-05-24T00:05:59;100346.94;;;13.86
70389;BMP280;58659;49.050;8.530;2023-05-24T00:08:25;100346.44;;;13.80
70389;BMP280;58659;49.050;8.530;2023-05-24T00:10:50;100342.28;;;13.76
70389;BMP280;58659;49.050;8.530;2023-05-24T00:13:16;100330.25;;;13.75
70389;BMP280;58659;49.050;8.530;2023-05-24T00:15:41;100331.38;;;13.74
70389;BMP280;58659;49.050;8.530;2023-05-24T00:18:06;100326.06;;;13.67
70389;BMP280;58659;49.050;8.530;2023-05-24T00:20:32;100316.16;;;13.56
70389;BMP280;58659;49.050;8.530;2023-05-24T00:22:57;100310.47;;;13.51
70389;BMP280;58659;49.050;8.530;2023-05-24T00:25:22;100309.25;;;13.45
70389;BMP280;58659;49.050;8.530;2023-05-24T00:27:47;100303.50;;;13.32
70389;BMP280;58659;49.050;8.530;2023-05-24T00:30:13;100303.41;;;13.25
70389;BMP280;58659;49.050;8.530;2023-05-24T00:32:38;100306.63;;;13.15
70389;BMP280;58659;49.050;8.530;2023-05-24T00:35:04;100308.88;;;13.13
70389;BMP280;58659;49.050;8.530;2023-05-24T00:37:29;100300.78;;;12.99
70389;BMP280;58659;49.050;8.530;2023-05-24T00:39:55;100309.66;;;12.91
70389;BMP280;58659;49.050;8.530;2023-05-24T00:42:20;100307.31;;;12.86
70389;BMP280;58659;49.050;8.530;2023-05-24T00:44:45;100313.31;;;12.83
70389;BMP280;58659;49.050;8.530;2023-05-24T00:47:11;100302.06;;;12.82
70389;BMP280;58659;49.050;8.530;2023-05-24T00:49:36;100312.75;;;12.74
70389;BMP280;58659;49.050;8.530;2023-05-24T00:52:01;100316.78;;;12.68
70389;BMP280;58659;49.050;8.530;2023-05-24T00:54:27;100306.50;;;12.55
70389;BMP280;58659;49.050;8.530;2023-05-24T00:56:54;100300.09;;;12.53
70389;BMP280;58659;49.050;8.530;2023-05-24T00:59:20;100312.72;;;12.47
70389;BMP280;58659;49.050;8.530;2023-05-24T01:01:45;100307.25;;;12.33
70389;BMP280;58659;49.050;8.530;2023-05-24T01:04:12;100295.94;;;12.29
70389;BMP280;58659;49.050;8.530;2023-05-24T01:06:47;100295.47;;;12.24
70389;BMP280;58659;49.050;8.530;2023-05-24T01:09:33;100292.38;;;12.18
70389;BMP280;58659;49.050;8.530;2023-05-24T01:17:21;100309.31;;;12.24
70389;BMP280;58659;49.050;8.530;2023-05-24T01:20:03;100298.16;;;12.27
70389;BMP280;58659;49.050;8.530;2023-05-24T01:23:03;100299.63;;;12.25
70389;BMP280;58659;49.050;8.530;2023-05-24T01:27:58;100305.88;;;12.20
70389;BMP280;58659;49.050;8.530;2023-05-24T01:30:26;100302.03;;;12.14
70389;BMP280;58659;49.050;8.530;2023-05-24T01:32:52;100314.13;;;12.22
70389;BMP280;58659;49.050;8.530;2023-05-24T01:35:17;100305.47;;;12.18
70389;BMP280;58659;49.050;8.530;2023-05-24T01:37:43;100307.00;;;12.19
70389;BMP280;58659;49.050;8.530;2023-05-24T01:40:09;100315.88;;;12.15
70389;BMP280;58659;49.050;8.530;2023-05-24T01:42:57;100315.53;;;12.16
70389;BMP280;58659;49.050;8.530;2023-05-24T01:48:05;100315.06;;;12.11
70389;BMP280;58659;49.050;8.530;2023-05-24T01:50:39;100322.59;;;12.12
70389;BMP280;58659;49.050;8.530;2023-05-24T01:53:08;100316.28;;;12.17
70389;BMP280;58659;49.050;8.530;2023-05-24T01:55:36;100323.34;;;12.13
70389;BMP280;58659;49.050;8.530;2023-05-24T01:58:04;100321.69;;;12.04
70389;BMP280;58659;49.050;8.530;2023-05-24T02:00:31;100320.94;;;12.04
70389;BMP280;58659;49.050;8.530;2023-05-24T02:02:57;100322.31;;;11.98
70389;BMP280;58659;49.050;8.530;2023-05-24T02:05:23;100333.88;;;11.97
70389;BMP280;58659;49.050;8.530;2023-05-24T02:07:48;100333.88;;;11.97
70389;BMP280;58659;49.050;8.530;2023-05-24T02:10:13;100335.63;;;11.89
70389;BMP280;58659;49.050;8.530;2023-05-24T02:12:39;100341.50;;;11.86
70389;BMP280;58659;49.050;8.530;2023-05-24T02:15:04;100332.56;;;11.87
70389;BMP280;58659;49.050;8.530;2023-05-24T02:17:30;100338.50;;;11.84
70389;BMP280;58659;49.050;8.530;2023-05-24T02:19:57;100330.25;;;11.82
70389;BMP280;58659;49.050;8.530;2023-05-24T02:22:22;100327.13;;;11.77
70389;BMP280;58659;49.050;8.530;2023-05-24T02:24:48;100331.94;;;11.75
70389;BMP280;58659;49.050;8.530;2023-05-24T02:27:13;100329.31;;;11.75
70389;BMP280;58659;49.050;8.530;2023-05-24T02:29:38;100330.22;;;11.63
70389;BMP280;58659;49.050;8.530;2023-05-24T02:32:05;100322.09;;;11.68
70389;BMP280;58659;49.050;8.530;2023-05-24T02:34:31;100335.59;;;11.70
70389;BMP280;58659;49.050;8.530;2023-05-24T02:36:56;100328.13;;;11.72
70389;BMP280;58659;49.050;8.530;2023-05-24T02:39:21;100342.09;;;11.76
70389;BMP280;58659;49.050;8.530;2023-05-24T02:41:47;100333.75;;;11.71
70389;BMP280;58659;49.050;8.530;2023-05-24T02:44:12;100342.84;;;11.77
70389;BMP280;58659;49.050;8.530;2023-05-24T02:46:37;100338.28;;;11.74
70389;BMP280;58659;49.050;8.530;2023-05-24T02:49:03;100331.91;;;11.71
70389;BMP280;58659;49.050;8.530;2023-05-24T02:51:29;100333.03;;;11.74
70389;BMP280;58659;49.050;8.530;2023-05-24T02:53:54;100334.13;;;11.73
70389;BMP280;58659;49.050;8.530;2023-05-24T02:56:19;100325.91;;;11.71
70389;BMP280;58659;49.050;8.530;2023-05-24T02:58:46;100335.47;;;11.63
70389;BMP280;58659;49.050;8.530;2023-05-24T03:01:11;100334.00;;;11.66
70389;BMP280;58659;49.050;8.530;2023-05-24T03:03:37;100331.25;;;11.59
70389;BMP280;58659;49.050;8.530;2023-05-24T03:06:03;100323.31;;;11.55
70389;BMP280;58659;49.050;8.530;2023-05-24T03:08:28;100316.84;;;11.49
70389;BMP280;58659;49.050;8.530;2023-05-24T03:10:54;100307.06;;;11.46
70389;BMP280;58659;49.050;8.530;2023-05-24T03:13:19;100305.84;;;11.43
70389;BMP280;58659;49.050;8.530;2023-05-24T03:15:44;100310.28;;;11.39
70389;BMP280;58659;49.050;8.530;2023-05-24T03:18:10;100302.69;;;11.34
70389;BMP280;58659;49.050;8.530;2023-05-24T03:20:36;100315.84;;;11.38
70389;BMP280;58659;49.050;8.530;2023-05-24T03:23:01;100305.97;;;11.31
70389;BMP280;58659;49.050;8.530;2023-05-24T03:25:26;100308.59;;;11.31
70389;BMP280;58659;49.050;8.530;2023-05-24T03:27:52;100303.66;;;11.26
70389;BMP280;58659;49.050;8.530;2023-05-24T03:30:17;100303.66;;;11.26
70389;BMP280;58659;49.050;8.530;2023-05-24T03:32:43;100305.84;;;11.24
70389;BMP280;58659;49.050;8.530;2023-05-24T03:35:08;100306.25;;;11.26
70389;BMP280;58659;49.050;8.530;2023-05-24T03:37:36;100300.63;;;11.24
70389;BMP280;58659;49.050;8.530;2023-05-24T03:40:02;100305.91;;;11.28
70389;BMP280;58659;49.050;8.530;2023-05-24T03:42:28;100306.59;;;11.25
70389;BMP280;58659;49.050;8.530;2023-05-24T03:44:54;100307.34;;;11.25
70389;BMP280;58659;49.050;8.530;2023-05-24T03:47:19;100315.19;;;11.25
70389;BMP280;58659;49.050;8.530;2023-05-24T03:49:45;100305.41;;;11.22
70389;BMP280;58659;49.050;8.530;2023-05-24T03:52:11;100306.25;;;11.26
70389;BMP280;58659;49.050;8.530;2023-05-24T03:54:36;100307.34;;;11.25
70389;BMP280;58659;49.050;8.530;2023-05-24T03:57:01;100308.50;;;11.28
70389;BMP280;58659;49.050;8.530;2023-05-24T03:59:27;100318.50;;;11.22
70389;BMP280;58659;49.050;8.530;2023-05-24T04:01:52;100320.03;;;11.23
70389;BMP280;58659;49.050;8.530;2023-05-24T04:06:43;100327.94;;;11.27
70389;BMP280;58659;49.050;8.530;2023-05-24T04:09:09;100325.25;;;11.23
70389;BMP280;58659;49.050;8.530;2023-05-24T04:11:34;100330.03;;;11.21
70389;BMP280;58659;49.050;8.530;2023-05-24T04:14:00;100331.25;;;11.24
70389;BMP280;58659;49.050;8.530;2023-05-24T04:16:26;100328.94;;;11.22
70389;BMP280;58659;49.050;8.530;2023-05-24T04:18:55;100328.19;;;11.22
70389;BMP280;58659;49.050;8.530;2023-05-24T04:21:20;100333.75;;;11.20
70389;BMP280;58659;49.050;8.530;2023-05-24T04:23:46;100329.06;;;11.10
70389;BMP280;58659;49.050;8.530;2023-05-24T04:26:12;100328.34;;;11.13
70389;BMP280;58659;49.050;8.530;2023-05-24T04:28:38;100323.13;;;11.13
70389;BMP280;58659;49.050;8.530;2023-05-24T04:31:04;100332.94;;;11.16
70389;BMP280;58659;49.050;8.530;2023-05-24T04:33:31;100326.94;;;11.16
70389;BMP280;58659;49.050;8.530;2023-05-24T04:35:56;100327.63;;;11.13
70389;BMP280;58659;49.050;8.530;2023-05-24T04:38:22;100334.03;;;11.15
70389;BMP280;58659;49.050;8.530;2023-05-24T04:40:49;100340.78;;;11.16
70389;BMP280;58659;49.050;8.530;2023-05-24T04:43:14;100342.72;;;11.19
70389;BMP280;58659;49.050;8.530;2023-05-24T04:45:39;100340.81;;;11.20
70389;BMP280;58659;49.050;8.530;2023-05-24T04:48:05;100331.56;;;11.22
70389;BMP280;58659;49.050;8.530;2023-05-24T04:50:31;100349.44;;;11.20
70389;BMP280;58659;49.050;8.530;2023-05-24T04:52:56;100346.50;;;11.22
70389;BMP280;58659;49.050;8.530;2023-05-24T04:55:22;100347.69;;;11.24
70389;BMP280;58659;49.050;8.530;2023-05-24T04:57:47;100351.41;;;11.23
70389;BMP280;58659;49.050;8.530;2023-05-24T05:00:13;100345.91;;;11.28
70389;BMP280;58659;49.050;8.530;2023-05-24T05:02:38;100342.00;;;11.38
70389;BMP280;58659;49.050;8.530;2023-05-24T05:05:04;100344.13;;;11.32
70389;BMP280;58659;49.050;8.530;2023-05-24T05:07:29;100341.19;;;11.34
70389;BMP280;58659;49.050;8.530;2023-05-24T05:09:54;100340.59;;;11.40
70389;BMP280;58659;49.050;8.530;2023-05-24T05:12:20;100353.06;;;11.47
70389;BMP280;58659;49.050;8.530;2023-05-24T05:14:46;100347.06;;;11.46
70389;BMP280;58659;49.050;8.530;2023-05-24T05:17:11;100358.91;;;11.40
70389;BMP280;58659;49.050;8.530;2023-05-24T05:19:40;100365.44;;;11.50
70389;BMP280;58659;49.050;8.530;2023-05-24T05:22:05;100355.84;;;11.54
70389;BMP280;58659;49.050;8.530;2023-05-24T05:24:30;100364.00;;;11.52
70389;BMP280;58659;49.050;8.530;2023-05-24T05:26:56;100355.47;;;11.56
70389;BMP280;58659;49.050;8.530;2023-05-24T05:29:21;100354.31;;;11.53
70389;BMP280;58659;49.050;8.530;2023-05-24T05:31:46;100361.81;;;11.55
70389;BMP280;58659;49.050;8.530;2023-05-24T05:34:11;100345.78;;;11.56
70389;BMP280;58659;49.050;8.530;2023-05-24T05:36:37;100351.94;;;11.64
70389;BMP280;58659;49.050;8.530;2023-05-24T05:39:07;100353.81;;;11.82
70389;BMP280;58659;49.050;8.530;2023-05-24T05:41:38;100348.50;;;11.98
70389;BMP280;58659;49.050;8.530;2023-05-24T05:44:04;100340.06;;;12.08
70389;BMP280;58659;49.050;8.530;2023-05-24T05:46:30;100341.25;;;12.11
70389;BMP280;58659;49.050;8.530;2023-05-24T05:48:56;100350.00;;;12.18
70389;BMP280;58659;49.050;8.530;2023-05-24T05:51:21;100365.72;;;12.18
70389;BMP280;58659;49.050;8.530;2023-05-24T05:53:46;100366.69;;;12.10
70389;BMP280;58659;49.050;8.530;2023-05-24T05:56:11;100362.97;;;12.11
70389;BMP280;58659;49.050;8.530;2023-05-24T05:58:37;100362.06;;;12.23
70389;BMP280;58659;49.050;8.530;2023-05-24T06:01:03;100363.25;;;12.25
70389;BMP280;58659;49.050;8.530;2023-05-24T06:03:28;100368.75;;;12.20
70389;BMP280;58659;49.050;8.530;2023-05-24T06:05:54;100377.44;;;12.24
70389;BMP280;58659;49.050;8.530;2023-05-24T06:08:19;100376.59;;;12.20
70389;BMP280;58659;49.050;8.530;2023-05-24T06:10:44;100373.00;;;12.09
70389;BMP280;58659;49.050;8.530;2023-05-24T06:13:10;100374.50;;;12.07
70389;BMP280;58659;49.050;8.530;2023-05-24T06:15:35;100370.34;;;12.06
70389;BMP280;58659;49.050;8.530;2023-05-24T06:18:02;100385.50;;;12.16
70389;BMP280;58659;49.050;8.530;2023-05-24T06:20:27;100383.38;;;12.21
70389;BMP280;58659;49.050;8.530;2023-05-24T06:22:53;100384.41;;;12.17
70389;BMP280;58659;49.050;8.530;2023-05-24T06:25:19;100384.59;;;12.08
70389;BMP280;58659;49.050;8.530;2023-05-24T06:27:46;100388.09;;;12.16
70389;BMP280;58659;49.050;8.530;2023-05-24T06:30:12;100394.94;;;12.20
70389;BMP280;58659;49.050;8.530;2023-05-24T06:32:37;100391.78;;;12.30
70389;BMP280;58659;49.050;8.530;2023-05-24T06:35:03;100383.66;;;12.35
70389;BMP280;58659;49.050;8.530;2023-05-24T06:37:28;100386.13;;;12.47
70389;BMP280;58659;49.050;8.530;2023-05-24T06:39:55;100393.47;;;12.61
70389;BMP280;58659;49.050;8.530;2023-05-24T06:42:20;100395.34;;;12.61
70389;BMP280;58659;49.050;8.530;2023-05-24T06:44:45;100390.72;;;12.77
70389;BMP280;58659;49.050;8.530;2023-05-24T06:47:11;100391.38;;;12.93
70389;BMP280;58659;49.050;8.530;2023-05-24T06:49:36;100394.72;;;13.16
70389;BMP280;58659;49.050;8.530;2023-05-24T06:52:01;100406.34;;;13.41
70389;BMP280;58659;49.050;8.530;2023-05-24T06:54:27;100404.00;;;13.62
70389;BMP280;58659;49.050;8.530;2023-05-24T06:56:53;100409.56;;;13.87
70389;BMP280;58659;49.050;8.530;2023-05-24T06:59:19;100405.16;;;13.95
70389;BMP280;58659;49.050;8.530;2023-05-24T07:01:45;100416.31;;;13.85
70389;BMP280;58659;49.050;8.530;2023-05-24T07:04:10;100413.59;;;13.78
70389;BMP280;58659;49.050;8.530;2023-05-24T07:06:35;100429.47;;;13.88
70389;BMP280;58659;49.050;8.530;2023-05-24T07:09:02;100426.41;;;13.83
70389;BMP280;58659;49.050;8.530;2023-05-24T07:11:28;100424.19;;;13.85
70389;BMP280;58659;49.050;8.530;2023-05-24T07:13:54;100431.25;;;13.81
70389;BMP280;58659;49.050;8.530;2023-05-24T07:16:19;100436.78;;;13.72
70389;BMP280;58659;49.050;8.530;2023-05-24T07:18:45;100432.84;;;13.59
70389;BMP280;58659;49.050;8.530;2023-05-24T07:21:11;100436.91;;;13.56
70389;BMP280;58659;49.050;8.530;2023-05-24T07:23:36;100431.97;;;13.48
70389;BMP280;58659;49.050;8.530;2023-05-24T07:26:02;100434.88;;;13.43
70389;BMP280;58659;49.050;8.530;2023-05-24T07:28:28;100444.75;;;13.53
70389;BMP280;58659;49.050;8.530;2023-05-24T07:30:54;100438.75;;;13.52
70389;BMP280;58659;49.050;8.530;2023-05-24T07:33:19;100444.13;;;13.59
70389;BMP280;58659;49.050;8.530;2023-05-24T07:35:44;100444.22;;;13.67
70389;BMP280;58659;49.050;8.530;2023-05-24T07:38:15;100436.72;;;13.68
70389;BMP280;58659;49.050;8.530;2023-05-24T07:40:40;100441.97;;;13.68
70389;BMP280;58659;49.050;8.530;2023-05-24T07:43:06;100441.28;;;13.72
70389;BMP280;58659;49.050;8.530;2023-05-24T07:45:31;100455.50;;;13.71
70389;BMP280;58659;49.050;8.530;2023-05-24T07:47:57;100453.00;;;14.11
70389;BMP280;58659;49.050;8.530;2023-05-24T07:50:22;100453.19;;;15.02
70389;BMP280;58659;49.050;8.530;2023-05-24T07:52:47;100449.31;;;16.40
70389;BMP280;58659;49.050;8.530;2023-05-24T07:55:14;100453.47;;;17.12
70389;BMP280;58659;49.050;8.530;2023-05-24T07:57:39;100452.81;;;17.91
70389;BMP280;58659;49.050;8.530;2023-05-24T08:00:05;100457.06;;;18.40
70389;BMP280;58659;49.050;8.530;2023-05-24T08:02:39;100457.13;;;18.37
70389;BMP280;58659;49.050;8.530;2023-05-24T08:05:05;100445.25;;;17.90
70389;BMP280;58659;49.050;8.530;2023-05-24T08:07:33;100454.88;;;17.48
70389;BMP280;58659;49.050;8.530;2023-05-24T08:09:59;100453.13;;;16.96
70389;BMP280;58659;49.050;8.530;2023-05-24T08:12:24;100446.34;;;16.91
70389;BMP280;58659;49.050;8.530;2023-05-24T08:14:50;100449.31;;;17.07
70389;BMP280;58659;49.050;8.530;2023-05-24T08:17:15;100449.34;;;16.90
70389;BMP280;58659;49.050;8.530;2023-05-24T08:19:40;100445.59;;;16.94
70389;BMP280;58659;49.050;8.530;2023-05-24T08:22:06;100447.00;;;17.38
70389;BMP280;58659;49.050;8.530;2023-05-24T08:24:31;100449.28;;;17.36
70389;BMP280;58659;49.050;8.530;2023-05-24T08:26:57;100449.28;;;17.25
70389;BMP280;58659;49.050;8.530;2023-05-24T08:29:22;100430.47;;;16.56
70389;BMP280;58659;49.050;8.530;2023-05-24T08:31:48;100445.88;;;16.19
70389;BMP280;58659;49.050;8.530;2023-05-24T08:34:13;100438.78;;;16.62
70389;BMP280;58659;49.050;8.530;2023-05-24T08:36:40;100448.19;;;17.01
70389;BMP280;58659;49.050;8.530;2023-05-24T08:39:07;100439.91;;;16.96
70389;BMP280;58659;49.050;8.530;2023-05-24T08:41:33;100439.47;;;17.33
70389;BMP280;58659;49.050;8.530;2023-05-24T08:44:04;100448.13;;;17.44
70389;BMP280;58659;49.050;8.530;2023-05-24T08:46:30;100441.78;;;17.17
70389;BMP280;58659;49.050;8.530;2023-05-24T08:48:57;100439.94;;;16.75
70389;BMP280;58659;49.050;8.530;2023-05-24T08:51:23;100450.84;;;16.63
70389;BMP280;58659;49.050;8.530;2023-05-24T08:53:49;100448.56;;;16.61
70389;BMP280;58659;49.050;8.530;2023-05-24T08:56:16;100449.72;;;16.60
70389;BMP280;58659;49.050;8.530;2023-05-24T08:58:42;100453.50;;;16.56
70389;BMP280;58659;49.050;8.530;2023-05-24T09:01:09;100447.03;;;16.35
70389;BMP280;58659;49.050;8.530;2023-05-24T09:03:35;100445.09;;;16.15
70389;BMP280;58659;49.050;8.530;2023-05-24T09:06:02;100438.31;;;16.00
70389;BMP280;58659;49.050;8.530;2023-05-24T09:08:28;100446.53;;;15.94
70389;BMP280;58659;49.050;8.530;2023-05-24T09:10:54;100445.41;;;15.85
70389;BMP280;58659;49.050;8.530;2023-05-24T09:13:21;100448.81;;;15.96
70389;BMP280;58659;49.050;8.530;2023-05-24T09:15:47;100453.81;;;16.33
70389;BMP280;58659;49.050;8.530;2023-05-24T09:18:12;100449.34;;;17.00
70389;BMP280;58659;49.050;8.530;2023-05-24T09:20:37;100445.28;;;17.93
70389;BMP280;58659;49.050;8.530;2023-05-24T09:23:02;100447.94;;;18.92
70389;BMP280;58659;49.050;8.530;2023-05-24T09:25:28;100442.13;;;19.69
70389;BMP280;58659;49.050;8.530;2023-05-24T09:27:54;100450.50;;;20.20
70389;BMP280;58659;49.050;8.530;2023-05-24T09:30:20;100451.28;;;21.07
70389;BMP280;58659;49.050;8.530;2023-05-24T09:32:59;100448.91;;;20.92
70389;BMP280;58659;49.050;8.530;2023-05-24T09:35:25;100451.88;;;21.34
70389;BMP280;58659;49.050;8.530;2023-05-24T09:37:53;100443.53;;;21.16
70389;BMP280;58659;49.050;8.530;2023-05-24T09:40:21;100451.94;;;20.71
70389;BMP280;58659;49.050;8.530;2023-05-24T09:42:46;100452.34;;;20.89
70389;BMP280;58659;49.050;8.530;2023-05-24T09:45:15;100458.25;;;21.01
70389;BMP280;58659;49.050;8.530;2023-05-24T09:47:42;100456.06;;;20.96
70389;BMP280;58659;49.050;8.530;2023-05-24T09:50:13;100447.78;;;20.24
70389;BMP280;58659;49.050;8.530;2023-05-24T09:52:39;100442.78;;;20.30
70389;BMP280;58659;49.050;8.530;2023-05-24T09:55:12;100436.84;;;20.88
70389;BMP280;58659;49.050;8.530;2023-05-24T09:57:37;100423.75;;;21.17
70389;BMP280;58659;49.050;8.530;2023-05-24T10:00:06;100432.22;;;21.12
70389;BMP280;58659;49.050;8.530;2023-05-24T10:02:38;100427.28;;;21.30
70389;BMP280;58659;49.050;8.530;2023-05-24T10:05:03;100429.88;;;21.69
70389;BMP280;58659;49.050;8.530;2023-05-24T10:07:29;100416.50;;;21.01
70389;BMP280;58659;49.050;8.530;2023-05-24T10:09:55;100426.22;;;21.08
70389;BMP280;58659;49.050;8.530;2023-05-24T10:12:21;100423.19;;;21.45
70389;BMP280;58659;49.050;8.530;2023-05-24T10:14:47;100428.63;;;21.74
70389;BMP280;58659;49.050;8.530;2023-05-24T10:17:12;100419.97;;;21.86
70389;BMP280;58659;49.050;8.530;2023-05-24T10:19:39;100414.34;;;22.28
70389;BMP280;58659;49.050;8.530;2023-05-24T10:22:06;100424.50;;;22.50
70389;BMP280;58659;49.050;8.530;2023-05-24T10:24:34;100424.38;;;22.53
70389;BMP280;58659;49.050;8.530;2023-05-24T10:27:01;100423.72;;;21.88
70389;BMP280;58659;49.050;8.530;2023-05-24T10:30:10;100426.41;;;22.49
70389;BMP280;58659;49.050;8.530;2023-05-24T10:32:16;100416.28;;;22.85
70389;BMP280;58659;49.050;8.530;2023-05-24T10:34:42;100410.38;;;23.44
70389;BMP280;58659;49.050;8.530;2023-05-24T10:37:09;100411.00;;;23.36
70389;BMP280;58659;49.050;8.530;2023-05-24T10:39:34;100406.63;;;23.29
70389;BMP280;58659;49.050;8.530;2023-05-24T10:42:03;100407.31;;;23.93
70389;BMP280;58659;49.050;8.530;2023-05-24T10:44:29;100400.94;;;21.87
70389;BMP280;58659;49.050;8.530;2023-05-24T10:47:12;100408.63;;;22.46
70389;BMP280;58659;49.050;8.530;2023-05-24T10:49:49;100400.78;;;23.34
70389;BMP280;58659;49.050;8.530;2023-05-24T10:52:16;100407.16;;;23.62
70389;BMP280;58659;49.050;8.530;2023-05-24T10:55:00;100408.31;;;23.73
70389;BMP280;58659;49.050;8.530;2023-05-24T10:57:26;100399.41;;;24.23
70389;BMP280;58659;49.050;8.530;2023-05-24T10:59:51;100407.69;;;24.38
70389;BMP280;58659;49.050;8.530;2023-05-24T11:02:16;100409.72;;;24.56
70389;BMP280;58659;49.050;8.530;2023-05-24T11:04:47;100397.91;;;24.87
70389;BMP280;58659;49.050;8.530;2023-05-24T11:07:13;100393.97;;;25.01
70389;BMP280;58659;49.050;8.530;2023-05-24T11:09:39;100400.63;;;24.75
70389;BMP280;58659;49.050;8.530;2023-05-24T11:12:18;100396.00;;;24.97
70389;BMP280;58659;49.050;8.530;2023-05-24T11:14:49;100398.22;;;24.98
70389;BMP280;58659;49.050;8.530;2023-05-24T11:17:15;100395.28;;;24.75
70389;BMP280;58659;49.050;8.530;2023-05-24T11:19:49;100386.84;;;24.76
70389;BMP280;58659;49.050;8.530;2023-05-24T11:22:15;100384.44;;;25.00
70389;BMP280;58659;49.050;8.530;2023-05-24T11:24:41;100396.63;;;25.01
70389;BMP280;58659;49.050;8.530;2023-05-24T11:27:08;100389.81;;;24.78
70389;BMP280;58659;49.050;8.530;2023-05-24T11:29:41;100376.16;;;25.16
70389;BMP280;58659;49.050;8.530;2023-05-24T11:32:07;100381.72;;;25.49
70389;BMP280;58659;49.050;8.530;2023-05-24T11:34:33;100381.19;;;25.72
70389;BMP280;58659;49.050;8.530;2023-05-24T11:37:00;100372.97;;;25.75
70389;BMP280;58659;49.050;8.530;2023-05-24T11:39:33;100382.06;;;25.60
70389;BMP280;58659;49.050;8.530;2023-05-24T11:42:00;100399.38;;;24.88
70389;BMP280;58659;49.050;8.530;2023-05-24T11:44:28;100392.84;;;23.81
70389;BMP280;58659;49.050;8.530;2023-05-24T11:46:57;100383.97;;;22.42
70389;BMP280;58659;49.050;8.530;2023-05-24T11:49:23;100380.09;;;22.30
70389;BMP280;58659;49.050;8.530;2023-05-24T11:51:48;100389.97;;;22.59
70389;BMP280;58659;49.050;8.530;2023-05-24T11:54:13;100378.38;;;23.19
70389;BMP280;58659;49.050;8.530;2023-05-24T11:56:38;100382.59;;;23.54
70389;BMP280;58659;49.050;8.530;2023-05-24T12:01:35;100383.16;;;24.52
70389;BMP280;58659;49.050;8.530;2023-05-24T12:04:01;100382.56;;;24.57
70389;BMP280;58659;49.050;8.530;2023-05-24T12:06:33;100376.31;;;24.82
70389;BMP280;58659;49.050;8.530;2023-05-24T12:08:58;100380.59;;;25.01
70389;BMP280;58659;49.050;8.530;2023-05-24T12:11:23;100381.00;;;24.69
70389;BMP280;58659;49.050;8.530;2023-05-24T12:13:49;100377.00;;;24.42
70389;BMP280;58659;49.050;8.530;2023-05-24T12:16:14;100379.84;;;24.26
70389;BMP280;58659;49.050;8.530;2023-05-24T12:18:40;100372.56;;;24.70
70389;BMP280;58659;49.050;8.530;2023-05-24T12:21:07;100363.06;;;25.09
70389;BMP280;58659;49.050;8.530;2023-05-24T12:23:32;100376.13;;;24.45
70389;BMP280;58659;49.050;8.530;2023-05-24T12:25:59;100373.50;;;24.11
70389;BMP280;58659;49.050;8.530;2023-05-24T12:28:25;100371.81;;;24.48
70389;BMP280;58659;49.050;8.530;2023-05-24T12:30:50;100362.44;;;25.05
70389;BMP280;58659;49.050;8.530;2023-05-24T12:33:19;100353.25;;;25.06
70389;BMP280;58659;49.050;8.530;2023-05-24T12:35:45;100362.63;;;25.10
70389;BMP280;58659;49.050;8.530;2023-05-24T12:38:11;100357.22;;;25.50
70389;BMP280;58659;49.050;8.530;2023-05-24T12:40:40;100347.06;;;25.18
70389;BMP280;58659;49.050;8.530;2023-05-24T12:43:06;100353.97;;;24.97
70389;BMP280;58659;49.050;8.530;2023-05-24T12:45:32;100350.91;;;25.17
70389;BMP280;58659;49.050;8.530;2023-05-24T12:47:58;100350.69;;;24.93
70389;BMP280;58659;49.050;8.530;2023-05-24T12:50:25;100350.97;;;24.34
70389;BMP280;58659;49.050;8.530;2023-05-24T12:52:51;100344.25;;;23.86
70389;BMP280;58659;49.050;8.530;2023-05-24T12:55:26;100342.78;;;24.07
70389;BMP280;58659;49.050;8.530;2023-05-24T12:57:53;100342.56;;;24.35
70389;BMP280;58659;49.050;8.530;2023-05-24T13:00:27;100337.97;;;25.06
70389;BMP280;58659;49.050;8.530;2023-05-24T13:02:53;100337.25;;;25.15
70389;BMP280;58659;49.050;8.530;2023-05-24T13:05:23;100330.75;;;24.85
70389;BMP280;58659;49.050;8.530;2023-05-24T13:07:49;100343.38;;;24.32
70389;BMP280;58659;49.050;8.530;2023-05-24T13:10:14;100329.03;;;23.96
70389;BMP280;58659;49.050;8.530;2023-05-24T13:12:40;100331.72;;;24.39
70389;BMP280;58659;49.050;8.530;2023-05-24T13:15:06;100322.19;;;23.73
70389;BMP280;58659;49.050;8.530;2023-05-24T13:17:32;100329.59;;;23.91
70389;BMP280;58659;49.050;8.530;2023-05-24T13:20:00;100321.53;;;23.82
70389;BMP280;58659;49.050;8.530;2023-05-24T13:22:25;100316.97;;;24.04
70389;BMP280;58659;49.050;8.530;2023-05-24T13:24:50;100331.28;;;24.19
70389;BMP280;58659;49.050;8.530;2023-05-24T13:27:16;100308.44;;;24.70
70389;BMP280;58659;49.050;8.530;2023-05-24T13:29:41;100311.00;;;24.92
70389;BMP280;58659;49.050;8.530;2023-05-24T13:32:07;100315.13;;;25.33
70389;BMP280;58659;49.050;8.530;2023-05-24T13:34:32;100314.38;;;25.32
70389;BMP280;58659;49.050;8.530;2023-05-24T13:36:58;100308.59;;;24.76
70389;BMP280;58659;49.050;8.530;2023-05-24T13:41:52;100310.09;;;24.46
70389;BMP280;58659;49.050;8.530;2023-05-24T13:44:17;100309.53;;;23.64
70389;BMP280;58659;49.050;8.530;2023-05-24T13:46:43;100310.09;;;23.81
70389;BMP280;58659;49.050;8.530;2023-05-24T13:49:09;100304.31;;;23.48
70389;BMP280;58659;49.050;8.530;2023-05-24T13:51:35;100309.94;;;23.63
70389;BMP280;58659;49.050;8.530;2023-05-24T13:54:01;100304.84;;;24.12
70389;BMP280;58659;49.050;8.530;2023-05-24T13:56:27;100299.28;;;24.49
70389;BMP280;58659;49.050;8.530;2023-05-24T13:58:57;100305.66;;;24.92
70389;BMP280;58659;49.050;8.530;2023-05-24T14:01:23;100315.56;;;24.73
70389;BMP280;58659;49.050;8.530;2023-05-24T14:03:48;100308.50;;;24.27
70389;BMP280;58659;49.050;8.530;2023-05-24T14:06:14;100317.31;;;24.15
70389;BMP280;58659;49.050;8.530;2023-05-24T14:08:39;100314.16;;;23.86
70389;BMP280;58659;49.050;8.530;2023-05-24T14:11:04;100310.72;;;23.63